sensor_id;sensor_type;location;lat;lon;timestamp;pressure;altitude;pressure_sealevel;temperature
67966;BMP280;54749;47.850;9.002;2022-11-02T00:00:29;96652.09;;;8.73
67966;BMP280;54749;47.850;9.002;2022-11-02T00:03:16;96663.13;;;8.71
67966;BMP280;54749;47.850;9.002;2022-11-02T00:05:43;96661.00;;;8.65
67966;BMP280;54749;47.850;9.002;2022-11-02T00:08:10;96667.09;;;8.61
67966;BMP280;54749;47.850;9.002;2022-11-02T00:10:37;96671.03;;;8.51
67966;BMP280;54749;47.850;9.002;2022-11-02T00:13:03;96674.41;;;8.37
67966;BMP280;54749;47.850;9.002;2022-11-02T00:15:33;96664.44;;;8.35
67966;BMP280;54749;47.850;9.002;2022-11-02T00:18:04;96678.16;;;8.30
67966;BMP280;54749;47.850;9.002;2022-11-02T00:20:31;96667.78;;;8.21
67966;BMP280;54749;47.850;9.002;2022-11-02T00:22:59;96674.31;;;8.09
67966;BMP280;54749;47.850;9.002;2022-11-02T00:25:27;96673.56;;;8.07
67966;BMP280;54749;47.850;9.002;2022-11-02T00:27:54;96673.88;;;8.02
67966;BMP280;54749;47.850;9.002;2022-11-02T00:30:21;96685.88;;;7.97
67966;BMP280;54749;47.850;9.002;2022-11-02T00:32:49;96691.09;;;7.94
67966;BMP280;54749;47.850;9.002;2022-11-02T00:35:17;96692.41;;;7.86
67966;BMP280;54749;47.850;9.002;2022-11-02T00:37:44;96691.91;;;7.79
67966;BMP280;54749;47.850;9.002;2022-11-02T00:40:11;96693.88;;;7.74
67966;BMP280;54749;47.850;9.002;2022-11-02T00:42:38;96698.63;;;7.64
67966;BMP280;54749;47.850;9.002;2022-11-02T00:45:05;96696.59;;;7.55
67966;BMP280;54749;47.850;9.002;2022-11-02T00:47:33;96702.13;;;7.46
67966;BMP280;54749;47.850;9.002;2022-11-02T00:50:00;96688.97;;;7.41
67966;BMP280;54749;47.850;9.002;2022-11-02T00:52:27;96687.50;;;7.37
67966;BMP280;54749;47.850;9.002;2022-11-02T00:54:53;96687.50;;;7.37
67966;BMP280;54749;47.850;9.002;2022-11-02T00:57:20;96683.53;;;7.34
67966;BMP280;54749;47.850;9.002;2022-11-02T00:59:47;96695.28;;;7.33
67966;BMP280;54749;47.850;9.002;2022-11-02T01:02:15;96698.59;;;7.34
67966;BMP280;54749;47.850;9.002;2022-11-02T01:04:42;96695.28;;;7.33
67966;BMP280;54749;47.850;9.002;2022-11-02T01:07:09;96686.03;;;7.34
67966;BMP280;54749;47.850;9.002;2022-11-02T01:09:36;96700.06;;;7.37
67966;BMP280;54749;47.850;9.002;2022-11-02T01:12:04;96694.09;;;7.40
67966;BMP280;54749;47.850;9.002;2022-11-02T01:14:31;96689.94;;;7.39
67966;BMP280;54749;47.850;9.002;2022-11-02T01:16:58;96689.44;;;7.33
67966;BMP280;54749;47.850;9.002;2022-11-02T01:19:25;96682.78;;;7.32
67966;BMP280;54749;47.850;9.002;2022-11-02T01:21:52;96684.56;;;7.30
67966;BMP280;54749;47.850;9.002;2022-11-02T01:24:18;96700.38;;;7.32
67966;BMP280;54749;47.850;9.002;2022-11-02T01:26:49;96691.06;;;7.34
67966;BMP280;54749;47.850;9.002;2022-11-02T01:29:17;96695.78;;;7.39
67966;BMP280;54749;47.850;9.002;2022-11-02T01:31:45;96677.03;;;7.45
67966;BMP280;54749;47.850;9.002;2022-11-02T01:34:11;96676.47;;;7.55
67966;BMP280;54749;47.850;9.002;2022-11-02T01:36:38;96678.69;;;7.61
67966;BMP280;54749;47.850;9.002;2022-11-02T01:39:05;96677.63;;;7.65
67966;BMP280;54749;47.850;9.002;2022-11-02T01:41:32;96691.66;;;7.69
67966;BMP280;54749;47.850;9.002;2022-11-02T01:44:01;96675.50;;;7.72
67966;BMP280;54749;47.850;9.002;2022-11-02T01:46:39;96685.97;;;7.80
67966;BMP280;54749;47.850;9.002;2022-11-02T01:49:13;96688.19;;;7.86
67966;BMP280;54749;47.850;9.002;2022-11-02T01:51:45;96690.13;;;7.96
67966;BMP280;54749;47.850;9.002;2022-11-02T01:54:16;96689.31;;;7.96
67966;BMP280;54749;47.850;9.002;2022-11-02T01:56:46;96678.13;;;7.86
67966;BMP280;54749;47.850;9.002;2022-11-02T01:59:18;96674.47;;;7.76
67966;BMP280;54749;47.850;9.002;2022-11-02T02:01:47;96674.22;;;7.66
67966;BMP280;54749;47.850;9.002;2022-11-02T02:04:14;96672.84;;;7.60
67966;BMP280;54749;47.850;9.002;2022-11-02T02:06:42;96676.47;;;7.55
67966;BMP280;54749;47.850;9.002;2022-11-02T02:09:09;96661.22;;;7.58
67966;BMP280;54749;47.850;9.002;2022-11-02T02:11:38;96661.06;;;7.61
67966;BMP280;54749;47.850;9.002;2022-11-02T02:14:18;96666.44;;;7.70
67966;BMP280;54749;47.850;9.002;2022-11-02T02:16:59;96664.47;;;7.75
67966;BMP280;54749;47.850;9.002;2022-11-02T02:23:17;96674.63;;;7.73
67966;BMP280;54749;47.850;9.002;2022-11-02T02:29:02;96670.16;;;7.63
67966;BMP280;54749;47.850;9.002;2022-11-02T02:31:39;96664.31;;;7.63
67966;BMP280;54749;47.850;9.002;2022-11-02T02:34:17;96668.94;;;7.55
67966;BMP280;54749;47.850;9.002;2022-11-02T02:37:00;96666.72;;;7.49
67966;BMP280;54749;47.850;9.002;2022-11-02T02:39:39;96675.50;;;7.42
67966;BMP280;54749;47.850;9.002;2022-11-02T02:42:18;96669.72;;;7.40
67966;BMP280;54749;47.850;9.002;2022-11-02T02:45:00;96675.44;;;7.44
67966;BMP280;54749;47.850;9.002;2022-11-02T02:47:32;96676.66;;;7.52
67966;BMP280;54749;47.850;9.002;2022-11-02T02:50:13;96666.25;;;7.58
67966;BMP280;54749;47.850;9.002;2022-11-02T02:52:44;96666.09;;;7.61
67966;BMP280;54749;47.850;9.002;2022-11-02T02:55:17;96654.41;;;7.60
67966;BMP280;54749;47.850;9.002;2022-11-02T02:57:45;96658.56;;;7.61
67966;BMP280;54749;47.850;9.002;2022-11-02T03:00:15;96677.81;;;7.62
67966;BMP280;54749;47.850;9.002;2022-11-02T03:02:45;96671.72;;;7.66
67966;BMP280;54749;47.850;9.002;2022-11-02T03:05:33;96669.59;;;7.73
67966;BMP280;54749;47.850;9.002;2022-11-02T03:08:06;96675.03;;;7.81
67966;BMP280;54749;47.850;9.002;2022-11-02T03:10:57;96651.31;;;7.85
67966;BMP280;54749;47.850;9.002;2022-11-02T03:19:43;96655.56;;;8.00
67966;BMP280;54749;47.850;9.002;2022-11-02T03:22:10;96657.00;;;8.04
67966;BMP280;54749;47.850;9.002;2022-11-02T03:27:36;96634.75;;;8.11
67966;BMP280;54749;47.850;9.002;2022-11-02T03:30:12;96640.41;;;8.15
67966;BMP280;54749;47.850;9.002;2022-11-02T03:33:03;96663.72;;;8.18
67966;BMP280;54749;47.850;9.002;2022-11-02T03:35:40;96641.88;;;8.19
67966;BMP280;54749;47.850;9.002;2022-11-02T03:38:16;96648.44;;;8.21
67966;BMP280;54749;47.850;9.002;2022-11-02T03:40:47;96650.16;;;8.21
67966;BMP280;54749;47.850;9.002;2022-11-02T03:43:18;96659.22;;;8.23
67966;BMP280;54749;47.850;9.002;2022-11-02T03:45:54;96676.16;;;8.21
67966;BMP280;54749;47.850;9.002;2022-11-02T03:48:28;96669.31;;;8.23
67966;BMP280;54749;47.850;9.002;2022-11-02T03:50:59;96665.09;;;8.23
67966;BMP280;54749;47.850;9.002;2022-11-02T03:53:33;96691.25;;;8.21
67966;BMP280;54749;47.850;9.002;2022-11-02T03:56:07;96671.94;;;8.22
67966;BMP280;54749;47.850;9.002;2022-11-02T03:58:37;96661.03;;;8.21
67966;BMP280;54749;47.850;9.002;2022-11-02T04:01:05;96673.44;;;8.24
67966;BMP280;54749;47.850;9.002;2022-11-02T04:03:39;96675.09;;;8.25
67966;BMP280;54749;47.850;9.002;2022-11-02T04:06:08;96675.41;;;8.19
67966;BMP280;54749;47.850;9.002;2022-11-02T04:08:36;96692.16;;;8.20
67966;BMP280;54749;47.850;9.002;2022-11-02T04:11:07;96677.94;;;8.19
67966;BMP280;54749;47.850;9.002;2022-11-02T04:13:58;96694.66;;;8.20
67966;BMP280;54749;47.850;9.002;2022-11-02T04:16:44;96686.22;;;8.21
67966;BMP280;54749;47.850;9.002;2022-11-02T04:19:24;96694.47;;;8.23
67966;BMP280;54749;47.850;9.002;2022-11-02T04:22:00;96700.09;;;8.28
67966;BMP280;54749;47.850;9.002;2022-11-02T04:24:50;96689.59;;;8.35
67966;BMP280;54749;47.850;9.002;2022-11-02T04:27:36;96702.72;;;8.40
67966;BMP280;54749;47.850;9.002;2022-11-02T04:30:04;96701.78;;;8.42
67966;BMP280;54749;47.850;9.002;2022-11-02T04:32:41;96698.25;;;8.45
67966;BMP280;54749;47.850;9.002;2022-11-02T04:35:32;96689.47;;;8.52
67966;BMP280;54749;47.850;9.002;2022-11-02T04:38:00;96691.56;;;8.59
67966;BMP280;54749;47.850;9.002;2022-11-02T04:40:46;96690.47;;;8.63
67966;BMP280;54749;47.850;9.002;2022-11-02T04:43:13;96686.34;;;8.62
67966;BMP280;54749;47.850;9.002;2022-11-02T04:45:41;96694.97;;;8.58
67966;BMP280;54749;47.850;9.002;2022-11-02T04:48:08;96701.81;;;8.56
67966;BMP280;54749;47.850;9.002;2022-11-02T04:50:35;96701.91;;;8.55
67966;BMP280;54749;47.850;9.002;2022-11-02T04:53:04;96704.16;;;8.59
67966;BMP280;54749;47.850;9.002;2022-11-02T04:55:33;96694.72;;;8.62
67966;BMP280;54749;47.850;9.002;2022-11-02T04:58:01;96705.59;;;8.63
67966;BMP280;54749;47.850;9.002;2022-11-02T05:00:29;96704.72;;;8.64
67966;BMP280;54749;47.850;9.002;2022-11-02T05:02:56;96706.41;;;8.63
67966;BMP280;54749;47.850;9.002;2022-11-02T05:05:24;96687.59;;;8.55
67966;BMP280;54749;47.850;9.002;2022-11-02T05:07:55;96706.13;;;8.54
67966;BMP280;54749;47.850;9.002;2022-11-02T05:10:22;96707.94;;;8.52
67966;BMP280;54749;47.850;9.002;2022-11-02T05:12:56;96710.44;;;8.52
67966;BMP280;54749;47.850;9.002;2022-11-02T05:15:25;96706.47;;;8.48
67966;BMP280;54749;47.850;9.002;2022-11-02T05:17:51;96713.28;;;8.46
67966;BMP280;54749;47.850;9.002;2022-11-02T05:20:19;96698.63;;;8.39
67966;BMP280;54749;47.850;9.002;2022-11-02T05:22:45;96714.69;;;8.37
67966;BMP280;54749;47.850;9.002;2022-11-02T05:25:14;96710.72;;;8.33
67966;BMP280;54749;47.850;9.002;2022-11-02T05:27:41;96712.94;;;8.23
67966;BMP280;54749;47.850;9.002;2022-11-02T05:30:09;96708.31;;;8.16
67966;BMP280;54749;47.850;9.002;2022-11-02T05:32:36;96723.59;;;8.13
67966;BMP280;54749;47.850;9.002;2022-11-02T05:35:04;96719.38;;;8.14
67966;BMP280;54749;47.850;9.002;2022-11-02T05:37:31;96724.50;;;8.12
67966;BMP280;54749;47.850;9.002;2022-11-02T05:39:58;96719.44;;;8.12
67966;BMP280;54749;47.850;9.002;2022-11-02T05:42:26;96711.34;;;8.07
67966;BMP280;54749;47.850;9.002;2022-11-02T05:44:53;96739.34;;;8.02
67966;BMP280;54749;47.850;9.002;2022-11-02T05:47:20;96722.53;;;8.02
67966;BMP280;54749;47.850;9.002;2022-11-02T05:49:47;96738.63;;;8.00
67966;BMP280;54749;47.850;9.002;2022-11-02T05:52:13;96739.50;;;7.99
67966;BMP280;54749;47.850;9.002;2022-11-02T05:54:41;96741.25;;;7.97
67966;BMP280;54749;47.850;9.002;2022-11-02T05:57:07;96732.16;;;7.94
67966;BMP280;54749;47.850;9.002;2022-11-02T05:59:34;96741.41;;;7.94
67966;BMP280;54749;47.850;9.002;2022-11-02T06:02:01;96744.63;;;7.97
67966;BMP280;54749;47.850;9.002;2022-11-02T06:04:28;96739.66;;;7.96
67966;BMP280;54749;47.850;9.002;2022-11-02T06:06:55;96745.94;;;8.04
67966;BMP280;54749;47.850;9.002;2022-11-02T06:09:22;96750.88;;;8.05
67966;BMP280;54749;47.850;9.002;2022-11-02T06:11:48;96746.19;;;8.00
67966;BMP280;54749;47.850;9.002;2022-11-02T06:14:15;96736.09;;;8.00
67966;BMP280;54749;47.850;9.002;2022-11-02T06:16:42;96766.88;;;8.05
67966;BMP280;54749;47.850;9.002;2022-11-02T06:19:09;96765.81;;;8.08
67966;BMP280;54749;47.850;9.002;2022-11-02T06:21:35;96748.66;;;8.15
67966;BMP280;54749;47.850;9.002;2022-11-02T06:24:02;96759.06;;;8.24
67966;BMP280;54749;47.850;9.002;2022-11-02T06:26:29;96754.28;;;8.35
67966;BMP280;54749;47.850;9.002;2022-11-02T06:28:56;96747.94;;;8.43
67966;BMP280;54749;47.850;9.002;2022-11-02T06:31:23;96740.56;;;8.54
67966;BMP280;54749;47.850;9.002;2022-11-02T06:33:50;96746.28;;;8.57
67966;BMP280;54749;47.850;9.002;2022-11-02T06:36:17;96762.50;;;8.67
67966;BMP280;54749;47.850;9.002;2022-11-02T06:38:44;96763.03;;;8.72
67966;BMP280;54749;47.850;9.002;2022-11-02T06:41:11;96766.88;;;8.78
67966;BMP280;54749;47.850;9.002;2022-11-02T06:43:38;96779.28;;;8.81
67966;BMP280;54749;47.850;9.002;2022-11-02T06:46:06;96784.78;;;8.88
67966;BMP280;54749;47.850;9.002;2022-11-02T06:48:33;96790.13;;;8.97
67966;BMP280;54749;47.850;9.002;2022-11-02T06:51:02;96787.28;;;9.03
67966;BMP280;54749;47.850;9.002;2022-11-02T06:53:30;96778.56;;;9.08
67966;BMP280;54749;47.850;9.002;2022-11-02T06:55:58;96788.38;;;9.12
67966;BMP280;54749;47.850;9.002;2022-11-02T06:58:25;96788.69;;;9.22
67966;BMP280;54749;47.850;9.002;2022-11-02T07:00:57;96792.00;;;9.36
67966;BMP280;54749;47.850;9.002;2022-11-02T07:03:25;96791.13;;;9.50
67966;BMP280;54749;47.850;9.002;2022-11-02T07:05:52;96788.50;;;9.65
67966;BMP280;54749;47.850;9.002;2022-11-02T07:08:20;96792.78;;;9.79
67966;BMP280;54749;47.850;9.002;2022-11-02T07:10:47;96796.84;;;9.95
67966;BMP280;54749;47.850;9.002;2022-11-02T07:13:14;96797.72;;;10.07
67966;BMP280;54749;47.850;9.002;2022-11-02T07:15:41;96797.88;;;10.18
67966;BMP280;54749;47.850;9.002;2022-11-02T07:18:08;96807.06;;;10.32
67966;BMP280;54749;47.850;9.002;2022-11-02T07:20:35;96818.09;;;10.57
67966;BMP280;54749;47.850;9.002;2022-11-02T07:23:03;96820.00;;;10.80
67966;BMP280;54749;47.850;9.002;2022-11-02T07:25:31;96818.66;;;11.00
67966;BMP280;54749;47.850;9.002;2022-11-02T07:28:00;96801.28;;;11.08
67966;BMP280;54749;47.850;9.002;2022-11-02T07:30:28;96808.16;;;11.18
67966;BMP280;54749;47.850;9.002;2022-11-02T07:32:56;96815.13;;;11.28
67966;BMP280;54749;47.850;9.002;2022-11-02T07:35:22;96820.41;;;11.38
67966;BMP280;54749;47.850;9.002;2022-11-02T07:38:01;96829.41;;;11.54
67966;BMP280;54749;47.850;9.002;2022-11-02T07:40:29;96824.66;;;11.73
67966;BMP280;54749;47.850;9.002;2022-11-02T07:42:57;96810.28;;;11.98
67966;BMP280;54749;47.850;9.002;2022-11-02T07:45:43;96794.59;;;12.28
67966;BMP280;54749;47.850;9.002;2022-11-02T07:48:10;96809.13;;;12.49
67966;BMP280;54749;47.850;9.002;2022-11-02T07:50:36;96805.66;;;12.62
67966;BMP280;54749;47.850;9.002;2022-11-02T07:53:03;96793.97;;;12.72
67966;BMP280;54749;47.850;9.002;2022-11-02T07:55:31;96806.22;;;12.78
67966;BMP280;54749;47.850;9.002;2022-11-02T07:58:00;96819.59;;;12.80
67966;BMP280;54749;47.850;9.002;2022-11-02T08:00:29;96817.97;;;12.79
67966;BMP280;54749;47.850;9.002;2022-11-02T08:02:58;96805.06;;;12.82
67966;BMP280;54749;47.850;9.002;2022-11-02T08:05:26;96804.53;;;12.89
67966;BMP280;54749;47.850;9.002;2022-11-02T08:07:58;96799.84;;;12.96
67966;BMP280;54749;47.850;9.002;2022-11-02T08:10:26;96803.56;;;13.02
67966;BMP280;54749;47.850;9.002;2022-11-02T08:12:54;96792.28;;;13.17
67966;BMP280;54749;47.850;9.002;2022-11-02T08:15:21;96816.84;;;13.39
67966;BMP280;54749;47.850;9.002;2022-11-02T08:18:03;96803.56;;;13.80
67966;BMP280;54749;47.850;9.002;2022-11-02T08:20:32;96798.97;;;14.06
67966;BMP280;54749;47.850;9.002;2022-11-02T08:23:00;96799.63;;;14.19
67966;BMP280;54749;47.850;9.002;2022-11-02T08:25:26;96817.19;;;14.22
67966;BMP280;54749;47.850;9.002;2022-11-02T08:27:58;96811.75;;;14.26
67966;BMP280;54749;47.850;9.002;2022-11-02T08:30:26;96808.66;;;14.23
67966;BMP280;54749;47.850;9.002;2022-11-02T08:32:54;96803.78;;;14.20
67966;BMP280;54749;47.850;9.002;2022-11-02T08:35:22;96804.03;;;14.17
67966;BMP280;54749;47.850;9.002;2022-11-02T08:37:56;96804.25;;;14.14
67966;BMP280;54749;47.850;9.002;2022-11-02T08:40:23;96811.31;;;14.21
67966;BMP280;54749;47.850;9.002;2022-11-02T08:43:00;96807.13;;;14.31
67966;BMP280;54749;47.850;9.002;2022-11-02T08:45:29;96810.81;;;14.38
67966;BMP280;54749;47.850;9.002;2022-11-02T08:48:16;96812.09;;;14.43
67966;BMP280;54749;47.850;9.002;2022-11-02T08:50:42;96815.78;;;14.50
67966;BMP280;54749;47.850;9.002;2022-11-02T08:53:09;96793.56;;;14.52
67966;BMP280;54749;47.850;9.002;2022-11-02T08:55:36;96790.22;;;14.62
67966;BMP280;54749;47.850;9.002;2022-11-02T08:58:03;96788.97;;;14.88
67966;BMP280;54749;47.850;9.002;2022-11-02T09:00:32;96796.94;;;15.24
67966;BMP280;54749;47.850;9.002;2022-11-02T09:05:32;96789.34;;;16.61
67966;BMP280;54749;47.850;9.002;2022-11-02T09:08:05;96770.44;;;17.37
67966;BMP280;54749;47.850;9.002;2022-11-02T09:10:34;96763.97;;;18.41
67966;BMP280;54749;47.850;9.002;2022-11-02T09:13:04;96769.13;;;18.58
67966;BMP280;54749;47.850;9.002;2022-11-02T09:15:34;96774.09;;;18.34
67966;BMP280;54749;47.850;9.002;2022-11-02T09:18:02;96771.47;;;17.81
67966;BMP280;54749;47.850;9.002;2022-11-02T09:20:30;96790.91;;;17.28
67966;BMP280;54749;47.850;9.002;2022-11-02T09:22:57;96797.84;;;16.89
67966;BMP280;54749;47.850;9.002;2022-11-02T09:25:24;96794.47;;;16.80
67966;BMP280;54749;47.850;9.002;2022-11-02T09:27:56;96798.34;;;16.65
67966;BMP280;54749;47.850;9.002;2022-11-02T09:30:24;96794.84;;;16.57
67966;BMP280;54749;47.850;9.002;2022-11-02T09:32:55;96804.75;;;16.50
67966;BMP280;54749;47.850;9.002;2022-11-02T09:35:23;96798.22;;;16.57
67966;BMP280;54749;47.850;9.002;2022-11-02T09:37:50;96804.66;;;16.61
67966;BMP280;54749;47.850;9.002;2022-11-02T09:40:23;96795.41;;;16.69
67966;BMP280;54749;47.850;9.002;2022-11-02T09:43:03;96802.41;;;16.77
67966;BMP280;54749;47.850;9.002;2022-11-02T09:45:35;96807.25;;;16.70
67966;BMP280;54749;47.850;9.002;2022-11-02T09:48:11;96801.31;;;16.61
67966;BMP280;54749;47.850;9.002;2022-11-02T09:51:37;96809.69;;;16.43
67966;BMP280;54749;47.850;9.002;2022-11-02T09:54:06;96818.09;;;16.25
67966;BMP280;54749;47.850;9.002;2022-11-02T09:56:42;96824.50;;;16.19
67966;BMP280;54749;47.850;9.002;2022-11-02T09:59:16;96820.25;;;16.29
67966;BMP280;54749;47.850;9.002;2022-11-02T10:15:56;96827.66;;;16.32
67966;BMP280;54749;47.850;9.002;2022-11-02T10:18:27;96824.84;;;16.35
67966;BMP280;54749;47.850;9.002;2022-11-02T10:21:04;96815.97;;;16.30
67966;BMP280;54749;47.850;9.002;2022-11-02T10:23:36;96812.47;;;16.30
67966;BMP280;54749;47.850;9.002;2022-11-02T10:26:04;96811.59;;;16.12
67966;BMP280;54749;47.850;9.002;2022-11-02T10:28:36;96830.75;;;16.06
67966;BMP280;54749;47.850;9.002;2022-11-02T10:31:20;96814.16;;;16.12
67966;BMP280;54749;47.850;9.002;2022-11-02T10:33:47;96813.13;;;15.94
67966;BMP280;54749;47.850;9.002;2022-11-02T10:36:32;96822.50;;;15.94
67966;BMP280;54749;47.850;9.002;2022-11-02T10:42:32;96814.41;;;16.09
67966;BMP280;54749;47.850;9.002;2022-11-02T10:45:16;96805.59;;;16.22
67966;BMP280;54749;47.850;9.002;2022-11-02T10:48:07;96808.66;;;16.16
67966;BMP280;54749;47.850;9.002;2022-11-02T10:50:46;96801.66;;;16.09
67966;BMP280;54749;47.850;9.002;2022-11-02T10:53:16;96789.81;;;16.08
67966;BMP280;54749;47.850;9.002;2022-11-02T10:56:20;96788.75;;;16.01
67966;BMP280;54749;47.850;9.002;2022-11-02T10:59:11;96786.34;;;16.09
67966;BMP280;54749;47.850;9.002;2022-11-02T11:04:25;96791.41;;;15.99
67966;BMP280;54749;47.850;9.002;2022-11-02T11:06:53;96781.63;;;16.04
67966;BMP280;54749;47.850;9.002;2022-11-02T11:09:28;96778.59;;;16.19
67966;BMP280;54749;47.850;9.002;2022-11-02T11:14:27;96775.03;;;16.31
67966;BMP280;54749;47.850;9.002;2022-11-02T11:17:18;96774.41;;;16.48
67966;BMP280;54749;47.850;9.002;2022-11-02T11:20:26;96775.25;;;16.66
67966;BMP280;54749;47.850;9.002;2022-11-02T11:25:39;96777.66;;;16.68
67966;BMP280;54749;47.850;9.002;2022-11-02T11:28:27;96773.66;;;16.75
67966;BMP280;54749;47.850;9.002;2022-11-02T11:31:12;96772.59;;;16.86
67966;BMP280;54749;47.850;9.002;2022-11-02T11:33:42;96781.84;;;16.78
67966;BMP280;54749;47.850;9.002;2022-11-02T11:36:20;96778.78;;;16.93
67966;BMP280;54749;47.850;9.002;2022-11-02T11:38:48;96768.84;;;16.90
67966;BMP280;54749;47.850;9.002;2022-11-02T11:41:16;96757.56;;;17.02
67966;BMP280;54749;47.850;9.002;2022-11-02T11:43:44;96739.56;;;17.13
67966;BMP280;54749;47.850;9.002;2022-11-02T11:46:14;96727.41;;;17.33
67966;BMP280;54749;47.850;9.002;2022-11-02T11:51:36;96730.66;;;17.35
67966;BMP280;54749;47.850;9.002;2022-11-02T11:54:17;96731.19;;;17.38
67966;BMP280;54749;47.850;9.002;2022-11-02T11:56:46;96735.75;;;17.35
67966;BMP280;54749;47.850;9.002;2022-11-02T11:59:25;96722.03;;;17.36
67966;BMP280;54749;47.850;9.002;2022-11-02T12:02:00;96727.41;;;17.33
67966;BMP280;54749;47.850;9.002;2022-11-02T12:04:33;96722.06;;;17.18
67966;BMP280;54749;47.850;9.002;2022-11-02T12:07:13;96733.50;;;17.14
67966;BMP280;54749;47.850;9.002;2022-11-02T12:12:48;96720.44;;;17.17
67966;BMP280;54749;47.850;9.002;2022-11-02T12:15:35;96724.88;;;16.87
67966;BMP280;54749;47.850;9.002;2022-11-02T12:18:24;96714.78;;;16.85
67966;BMP280;54749;47.850;9.002;2022-11-02T12:29:56;96704.28;;;17.35
67966;BMP280;54749;47.850;9.002;2022-11-02T12:38:19;96684.31;;;17.56
67966;BMP280;54749;47.850;9.002;2022-11-02T12:43:46;96680.09;;;17.29
67966;BMP280;54749;47.850;9.002;2022-11-02T12:51:49;96685.91;;;16.94
67966;BMP280;54749;47.850;9.002;2022-11-02T12:54:20;96688.06;;;17.08
67966;BMP280;54749;47.850;9.002;2022-11-02T12:56:49;96676.91;;;17.00
67966;BMP280;54749;47.850;9.002;2022-11-02T12:59:21;96671.22;;;17.15
67966;BMP280;54749;47.850;9.002;2022-11-02T13:01:53;96673.63;;;17.25
67966;BMP280;54749;47.850;9.002;2022-11-02T13:04:28;96663.41;;;17.25
67966;BMP280;54749;47.850;9.002;2022-11-02T13:07:12;96679.16;;;17.12
67966;BMP280;54749;47.850;9.002;2022-11-02T13:09:53;96673.94;;;17.04
67966;BMP280;54749;47.850;9.002;2022-11-02T13:12:23;96656.19;;;17.12
67966;BMP280;54749;47.850;9.002;2022-11-02T13:14:52;96668.25;;;17.19
67966;BMP280;54749;47.850;9.002;2022-11-02T13:17:24;96665.06;;;17.17
67966;BMP280;54749;47.850;9.002;2022-11-02T13:19:58;96670.72;;;17.02
67966;BMP280;54749;47.850;9.002;2022-11-02T13:22:30;96666.28;;;16.95
67966;BMP280;54749;47.850;9.002;2022-11-02T13:25:14;96661.59;;;16.90
67966;BMP280;54749;47.850;9.002;2022-11-02T13:28:04;96663.31;;;16.81
67966;BMP280;54749;47.850;9.002;2022-11-02T13:30:33;96660.22;;;16.77
67966;BMP280;54749;47.850;9.002;2022-11-02T13:33:07;96685.50;;;16.62
67966;BMP280;54749;47.850;9.002;2022-11-02T13:35:38;96677.13;;;16.41
67966;BMP280;54749;47.850;9.002;2022-11-02T13:40:43;96687.59;;;16.29
67966;BMP280;54749;47.850;9.002;2022-11-02T13:43:18;96672.00;;;16.13
67966;BMP280;54749;47.850;9.002;2022-11-02T13:54:01;96683.00;;;15.76
67966;BMP280;54749;47.850;9.002;2022-11-02T13:56:29;96673.97;;;15.72
67966;BMP280;54749;47.850;9.002;2022-11-02T13:58:59;96675.84;;;15.70
67966;BMP280;54749;47.850;9.002;2022-11-02T14:01:29;96675.31;;;15.66
67966;BMP280;54749;47.850;9.002;2022-11-02T14:04:04;96669.25;;;15.58
67966;BMP280;54749;47.850;9.002;2022-11-02T14:06:43;96661.66;;;15.47
67966;BMP280;54749;47.850;9.002;2022-11-02T14:09:21;96669.00;;;15.41
67966;BMP280;54749;47.850;9.002;2022-11-02T14:11:48;96666.00;;;15.27
67966;BMP280;54749;47.850;9.002;2022-11-02T14:14:19;96674.69;;;15.24
67966;BMP280;54749;47.850;9.002;2022-11-02T14:26:59;96666.44;;;14.92
67966;BMP280;54749;47.850;9.002;2022-11-02T14:37:56;96652.53;;;14.76
67966;BMP280;54749;47.850;9.002;2022-11-02T14:40:32;96643.06;;;14.67
67966;BMP280;54749;47.850;9.002;2022-11-02T14:48:16;96644.41;;;14.51
67966;BMP280;54749;47.850;9.002;2022-11-02T14:50:57;96646.66;;;14.45
67966;BMP280;54749;47.850;9.002;2022-11-02T14:53:26;96647.69;;;14.42
67966;BMP280;54749;47.850;9.002;2022-11-02T14:55:55;96642.50;;;14.33
67966;BMP280;54749;47.850;9.002;2022-11-02T14:58:31;96650.84;;;14.24
67966;BMP280;54749;47.850;9.002;2022-11-02T15:01:01;96651.72;;;14.14
67966;BMP280;54749;47.850;9.002;2022-11-02T15:03:35;96660.50;;;14.10
67966;BMP280;54749;47.850;9.002;2022-11-02T15:06:21;96647.34;;;14.05
67966;BMP280;54749;47.850;9.002;2022-11-02T15:08:56;96655.44;;;14.00
67966;BMP280;54749;47.850;9.002;2022-11-02T15:11:43;96638.63;;;13.88
67966;BMP280;54749;47.850;9.002;2022-11-02T15:19:39;96646.22;;;13.56
67966;BMP280;54749;47.850;9.002;2022-11-02T15:25:25;96639.09;;;13.39
67966;BMP280;54749;47.850;9.002;2022-11-02T15:28:18;96656.88;;;13.29
67966;BMP280;54749;47.850;9.002;2022-11-02T15:30:50;96655.34;;;13.15
67966;BMP280;54749;47.850;9.002;2022-11-02T15:33:24;96650.59;;;13.00
67966;BMP280;54749;47.850;9.002;2022-11-02T15:35:54;96640.44;;;12.90
67966;BMP280;54749;47.850;9.002;2022-11-02T15:38:26;96649.84;;;12.77
67966;BMP280;54749;47.850;9.002;2022-11-02T15:59:59;96647.00;;;11.67
67966;BMP280;54749;47.850;9.002;2022-11-02T16:02:37;96633.06;;;11.50
67966;BMP280;54749;47.850;9.002;2022-11-02T16:05:05;96623.66;;;11.39
67966;BMP280;54749;47.850;9.002;2022-11-02T16:07:34;96635.34;;;11.30
67966;BMP280;54749;47.850;9.002;2022-11-02T16:15:24;96634.72;;;10.90
67966;BMP280;54749;47.850;9.002;2022-11-02T16:17:51;96624.63;;;10.78
67966;BMP280;54749;47.850;9.002;2022-11-02T16:20:24;96635.41;;;10.68
67966;BMP280;54749;47.850;9.002;2022-11-02T16:22:57;96627.63;;;10.58
67966;BMP280;54749;47.850;9.002;2022-11-02T16:25:34;96633.19;;;10.51
67966;BMP280;54749;47.850;9.002;2022-11-02T16:28:18;96635.63;;;10.77
67966;BMP280;54749;47.850;9.002;2022-11-02T16:33:47;96623.56;;;11.04
67966;BMP280;54749;47.850;9.002;2022-11-02T16:36:35;96632.69;;;10.83
67966;BMP280;54749;47.850;9.002;2022-11-02T16:41:39;96626.94;;;10.31
67966;BMP280;54749;47.850;9.002;2022-11-02T16:44:09;96638.22;;;10.13
67966;BMP280;54749;47.850;9.002;2022-11-02T16:49:14;96643.84;;;9.79
67966;BMP280;54749;47.850;9.002;2022-11-02T16:54:47;96648.22;;;9.36
67966;BMP280;54749;47.850;9.002;2022-11-02T16:57:20;96633.38;;;9.18
67966;BMP280;54749;47.850;9.002;2022-11-02T16:59:56;96630.22;;;9.14
67966;BMP280;54749;47.850;9.002;2022-11-02T17:02:38;96637.91;;;9.13
67966;BMP280;54749;47.850;9.002;2022-11-02T17:05:15;96646.69;;;9.06
67966;BMP280;54749;47.850;9.002;2022-11-02T17:07:46;96648.25;;;8.95
67966;BMP280;54749;47.850;9.002;2022-11-02T17:10:20;96646.22;;;8.73
67966;BMP280;54749;47.850;9.002;2022-11-02T17:12:49;96646.47;;;8.55